Time;durP1;ratioP1;P1;durP2;ratioP2;P2;SDS_P1;SDS_P2;PMS_P1;PMS_P2;Temp;Humidity;BMP_temperature;BMP_pressure;BME280_temperature;BME280_humidity;BME280_pressure;Samples;Min_cycle;Max_cycle;Signal;HPM_P1;HPM_P2
2022/05/07 00:02:06;;;;;;;5.53;3.60;;;9.60;99.90;;;9.17;100.00;97813.97;5011497;28;20033;-60
2022/05/07 00:04:36;;;;;;;7.68;3.80;;;9.60;99.90;;;9.13;100.00;97814.06;5013704;28;20030;-59
2022/05/07 00:07:05;;;;;;;4.85;3.85;;;9.50;99.90;;;9.07;100.00;97808.97;5017839;28;20033;-59
2022/05/07 00:09:32;;;;;;;5.15;3.85;;;9.50;99.90;;;9.01;100.00;97807.34;5016613;28;20087;-59
2022/05/07 00:11:58;;;;;;;4.20;3.47;;;9.50;99.90;;;8.98;100.00;97807.41;5016972;28;20047;-59
2022/05/07 00:14:24;;;;;;;4.95;4.00;;;9.40;99.90;;;8.91;100.00;97806.69;5018074;28;20046;-59
2022/05/07 00:19:34;;;;;;;7.43;4.20;;;9.40;99.90;;;8.84;100.00;97799.00;5017743;28;20036;-59
2022/05/07 00:22:01;;;;;;;4.30;3.60;;;9.30;99.90;;;8.82;100.00;97804.28;5018785;28;20025;-59
2022/05/07 00:24:27;;;;;;;7.28;4.10;;;9.30;99.90;;;8.77;100.00;97803.53;5018525;28;20044;-58
2022/05/07 00:26:52;;;;;;;6.35;4.35;;;9.20;99.90;;;8.56;100.00;97763.69;5014046;28;20026;-59
2022/05/07 00:29:18;;;;;;;5.80;4.63;;;9.20;99.90;;;8.74;100.00;97801.84;5017478;28;20111;-59
2022/05/07 00:31:44;;;;;;;8.73;4.68;;;9.20;99.90;;;8.71;100.00;97795.78;5015585;28;20033;-59
2022/05/07 00:34:10;;;;;;;6.55;4.25;;;9.10;99.90;;;8.71;100.00;97798.41;5020415;28;20056;-59
2022/05/07 00:36:36;;;;;;;5.25;4.03;;;9.20;99.90;;;8.69;100.00;97789.69;5017514;28;20033;-56
2022/05/07 00:39:03;;;;;;;6.07;4.28;;;9.10;99.90;;;8.69;100.00;97797.59;5018622;28;20060;-59
2022/05/07 00:41:29;;;;;;;5.15;4.00;;;9.10;99.90;;;8.65;100.00;97793.28;5018054;28;20028;-59
2022/05/07 00:43:54;;;;;;;4.97;3.60;;;9.10;99.90;;;8.63;100.00;97795.94;5019276;28;20029;-59
2022/05/07 00:46:26;;;;;;;5.85;3.28;;;9.10;99.90;;;8.59;100.00;97789.03;5020042;28;20521;-59
2022/05/07 00:48:52;;;;;;;4.17;3.07;;;9.00;99.90;;;8.55;100.00;97784.75;5017357;28;20029;-59
2022/05/07 00:51:34;;;;;;;5.55;3.60;;;9.00;99.90;;;8.51;100.00;97790.97;4984939;28;20025;-59
2022/05/07 00:54:06;;;;;;;4.97;3.75;;;9.00;99.90;;;8.46;100.00;97780.56;5022639;28;20037;-59
2022/05/07 00:56:33;;;;;;;4.25;3.58;;;8.90;99.90;;;8.45;100.00;97781.44;5015488;28;20046;-59
2022/05/07 00:59:00;;;;;;;5.70;4.07;;;8.90;99.90;;;8.43;100.00;97782.38;5014858;28;20036;-59
2022/05/07 01:01:26;;;;;;;5.35;3.60;;;8.90;99.90;;;8.40;100.00;97775.41;5014165;28;20029;-59
2022/05/07 01:03:52;;;;;;;4.85;3.63;;;8.90;99.90;;;8.37;100.00;97775.47;5013140;28;20386;-59
2022/05/07 01:06:20;;;;;;;7.90;3.58;;;8.90;99.90;;;8.38;100.00;97771.94;4997595;28;20129;-59
2022/05/07 01:08:47;;;;;;;5.65;3.83;;;8.80;99.90;;;8.39;100.00;97773.69;5014475;28;20310;-59
2022/05/07 01:11:16;;;;;;;5.95;3.90;;;8.80;99.90;;;8.37;100.00;97784.22;5015992;28;20065;-59
2022/05/07 01:13:46;;;;;;;7.60;4.07;;;8.80;99.90;;;8.32;100.00;97782.59;5018537;28;20025;-59
2022/05/07 01:16:12;;;;;;;5.38;4.00;;;8.70;99.90;;;8.15;100.00;97760.19;5013865;28;20485;-59
2022/05/07 01:18:39;;;;;;;4.88;3.83;;;8.70;99.90;;;8.20;100.00;97776.72;5015908;28;20128;-59
2022/05/07 01:21:18;;;;;;;6.25;4.03;;;8.70;99.90;;;8.16;100.00;97768.91;5015847;28;20038;-59
2022/05/07 01:23:47;;;;;;;6.65;4.30;;;8.60;99.90;;;8.12;100.00;97776.00;5015868;28;20511;-59
2022/05/07 01:26:13;;;;;;;7.95;4.72;;;8.60;99.90;;;8.10;100.00;97767.28;5014927;28;20029;-59
2022/05/07 01:28:40;;;;;;;7.35;5.13;;;8.60;99.90;;;8.11;100.00;97765.53;5017833;28;20524;-59
2022/05/07 01:31:06;;;;;;;10.35;6.25;;;8.60;99.90;;;8.10;100.00;97767.28;5016556;28;20041;-59
2022/05/07 01:33:33;;;;;;;10.00;7.00;;;8.60;99.90;;;8.05;100.00;97761.25;5015115;28;20317;-59
2022/05/07 01:36:06;;;;;;;8.40;6.32;;;8.50;99.90;;;8.11;100.00;97769.03;5017561;28;21212;-59
2022/05/07 01:38:32;;;;;;;9.82;6.65;;;8.60;99.90;;;8.10;100.00;97775.16;5013485;28;20505;-59
2022/05/07 01:40:59;;;;;;;11.65;6.80;;;8.60;99.90;;;8.11;100.00;97768.16;5015572;28;20044;-59
2022/05/07 01:43:27;;;;;;;9.48;6.65;;;8.60;99.90;;;8.09;100.00;97764.69;5014526;28;20049;-59
2022/05/07 01:45:56;;;;;;;8.77;6.00;;;8.60;99.90;;;8.06;100.00;97760.38;5014690;28;20088;-59
2022/05/07 01:48:22;;;;;;;8.52;6.25;;;8.60;99.90;;;8.01;100.00;97765.72;5017563;28;20044;-59
2022/05/07 01:50:48;;;;;;;8.48;6.45;;;8.50;99.90;;;7.97;100.00;97765.84;5014669;28;20045;-59
2022/05/07 01:53:14;;;;;;;8.18;5.72;;;8.50;99.90;;;7.93;100.00;97767.66;5022381;28;20036;-59
2022/05/07 01:55:40;;;;;;;8.65;6.28;;;8.40;99.90;;;7.88;100.00;97768.63;5016416;28;20618;-59
2022/05/07 01:58:06;;;;;;;8.68;6.57;;;8.40;99.90;;;7.84;100.00;97765.19;5019570;28;20132;-59
2022/05/07 02:00:34;;;;;;;8.75;6.13;;;8.30;99.90;;;7.80;100.00;97768.78;5019755;28;20102;-59
2022/05/07 02:03:00;;;;;;;9.60;6.07;;;8.30;99.90;;;7.73;100.00;97773.28;5015350;28;20032;-59
2022/05/07 02:05:27;;;;;;;7.22;5.90;;;8.20;99.90;;;7.67;100.00;97773.41;5041497;23;20045;-55
2022/05/07 02:07:55;;;;;;;10.60;6.40;;;8.20;99.90;;;7.61;100.00;97771.78;5037301;28;20024;-54
2022/05/07 02:10:21;;;;;;;9.07;6.30;;;8.10;99.90;;;7.62;100.00;97772.63;5035610;28;20464;-54
2022/05/07 02:12:49;;;;;;;8.40;6.43;;;8.10;99.90;;;7.60;100.00;97771.81;5039635;28;20048;-54
2022/05/07 02:15:14;;;;;;;8.63;6.75;;;8.10;99.90;;;7.56;100.00;97770.13;5039251;28;20037;-54
2022/05/07 02:17:40;;;;;;;8.68;6.53;;;8.10;99.90;;;7.54;100.00;97772.78;5043913;28;20037;-52
2022/05/07 02:20:07;;;;;;;9.98;7.20;;;8.00;99.90;;;7.48;100.00;97764.16;5040063;28;20036;-53
2022/05/07 02:22:33;;;;;;;9.98;7.30;;;8.00;99.90;;;7.53;100.00;97773.66;5036650;28;20644;-54
2022/05/07 02:24:59;;;;;;;9.93;6.97;;;8.00;99.90;;;7.52;100.00;97771.97;5039476;28;20037;-53
2022/05/07 02:27:26;;;;;;;7.90;6.57;;;8.00;99.90;;;7.51;100.00;97775.47;5039193;28;20050;-54
2022/05/07 02:29:52;;;;;;;8.93;6.53;;;8.00;99.90;;;7.50;100.00;97781.63;5023240;28;20468;-54
2022/05/07 02:32:18;;;;;;;8.77;6.45;;;8.00;99.90;;;7.49;100.00;97765.91;5040172;28;20036;-53
2022/05/07 02:34:43;;;;;;;9.52;6.30;;;8.00;99.90;;;7.47;100.00;97775.56;5039486;28;20056;-54
2022/05/07 02:37:10;;;;;;;9.10;6.20;;;8.00;99.90;;;7.34;100.00;97752.16;5036798;28;20029;-54
2022/05/07 02:39:35;;;;;;;9.23;5.72;;;8.00;99.90;;;7.45;100.00;97781.69;5033849;28;20515;-55
2022/05/07 02:44:47;;;;;;;9.25;5.38;;;7.90;99.90;;;7.40;100.00;97762.53;5029494;28;20048;-53
2022/05/07 02:47:12;;;;;;;7.93;5.25;;;7.90;99.90;;;7.40;100.00;97770.41;5032792;28;20081;-53
2022/05/07 02:49:38;;;;;;;6.20;4.63;;;7.90;99.90;;;7.38;100.00;97766.09;5032628;28;20033;-52
2022/05/07 02:52:04;;;;;;;6.80;4.78;;;7.90;99.90;;;7.34;100.00;97767.91;5033415;28;20709;-53
2022/05/07 02:54:30;;;;;;;8.20;5.78;;;7.90;99.90;;;7.37;100.00;97769.59;5032457;28;20175;-55
2022/05/07 02:56:56;;;;;;;11.68;5.88;;;7.90;99.90;;;7.35;100.00;97774.00;5033955;28;20041;-55
2022/05/07 02:59:22;;;;;;;7.38;5.68;;;7.80;99.90;;;7.33;100.00;97773.19;5034659;28;20079;-54
2022/05/07 03:01:48;;;;;;;9.88;5.97;;;7.80;99.90;;;7.31;100.00;97767.97;5029674;28;20796;-54
2022/05/07 03:04:14;;;;;;;7.85;5.68;;;7.80;99.90;;;7.31;100.00;97777.59;5032893;28;20111;-54
2022/05/07 03:06:40;;;;;;;9.85;5.97;;;7.80;99.90;;;7.25;100.00;97760.22;5035194;28;20432;-52
2022/05/07 03:09:06;;;;;;;7.78;5.75;;;7.80;99.90;;;7.30;100.00;97770.59;5037601;28;20135;-53
2022/05/07 03:11:35;;;;;;;14.05;6.00;;;7.80;99.90;;;7.27;100.00;97776.78;5036471;28;20037;-54
2022/05/07 03:14:02;;;;;;;9.75;5.55;;;7.70;99.90;;;7.11;100.00;97741.22;5037670;28;20032;-52
2022/05/07 03:16:28;;;;;;;8.35;5.93;;;7.80;99.90;;;7.24;100.00;97761.94;5027270;28;20033;-53
2022/05/07 03:18:53;;;;;;;8.07;5.22;;;7.80;99.90;;;7.23;100.00;97769.84;5034002;28;20571;-53
2022/05/07 03:21:19;;;;;;;7.65;5.07;;;7.70;99.90;;;7.20;100.00;97775.16;5038679;28;20232;-53
2022/05/07 03:23:46;;;;;;;7.20;5.40;;;7.70;99.90;;;7.16;100.00;97774.34;5038751;28;20033;-53
2022/05/07 03:26:12;;;;;;;5.90;4.80;;;7.70;99.90;;;7.16;100.00;97770.84;5034602;28;20114;-54
2022/05/07 03:28:39;;;;;;;8.80;4.90;;;7.70;99.90;;;7.15;100.00;97771.75;5037474;28;20374;-53
2022/05/07 03:31:06;;;;;;;7.30;4.82;;;7.70;99.90;;;7.15;100.00;97769.13;5034420;28;20025;-54
2022/05/07 03:33:32;;;;;;;10.80;5.60;;;7.70;99.90;;;7.08;100.00;97760.50;5020990;28;20393;-55
2022/05/07 03:35:58;;;;;;;7.15;5.45;;;7.60;99.90;;;7.07;100.00;97764.88;5034083;28;20127;-54
2022/05/07 03:38:23;;;;;;;6.78;5.50;;;7.70;99.90;;;7.07;100.00;97770.13;5033091;28;20502;-50
2022/05/07 03:40:49;;;;;;;8.50;6.18;;;7.60;99.90;;;7.07;100.00;97764.03;5035241;28;20040;-55
2022/05/07 03:43:15;;;;;;;7.82;6.25;;;7.60;99.90;;;7.12;100.00;97763.94;5021591;28;20045;-53
2022/05/07 03:45:42;;;;;;;11.05;6.20;;;7.60;99.90;;;7.11;100.00;97770.94;5034582;28;20454;-54
2022/05/07 03:48:09;;;;;;;7.80;5.88;;;7.70;99.90;;;7.06;100.00;97760.50;5036287;28;20508;-53
2022/05/07 03:50:35;;;;;;;6.60;5.43;;;7.60;99.90;;;7.10;100.00;97766.56;5035545;28;20076;-54
2022/05/07 03:55:46;;;;;;;7.25;5.75;;;7.60;99.90;;;7.10;100.00;97760.47;5037348;28;20051;-54
2022/05/07 03:58:15;;;;;;;8.32;5.43;;;7.60;99.90;;;7.09;100.00;97775.34;5037933;28;20033;-54
2022/05/07 04:00:44;;;;;;;9.18;6.07;;;7.60;99.90;;;7.07;100.00;97767.50;5035140;28;20094;-52
2022/05/07 04:03:13;;;;;;;9.65;5.90;;;7.60;99.90;;;7.05;100.00;97771.91;5037881;28;20049;-54
2022/05/07 04:05:40;;;;;;;7.60;6.30;;;7.50;99.90;;;7.01;100.00;97764.09;5035129;28;20021;-51
2022/05/07 04:08:06;;;;;;;7.38;5.80;;;7.60;99.90;;;7.06;100.00;97771.00;5034950;28;20064;-53
2022/05/07 04:10:32;;;;;;;9.00;6.15;;;7.50;99.90;;;6.99;100.00;97760.66;5035968;28;20041;-54
2022/05/07 04:12:58;;;;;;;7.63;5.32;;;7.50;99.90;;;6.99;100.00;97764.13;5035689;28;20037;-55
2022/05/07 04:15:24;;;;;;;8.30;5.78;;;7.60;99.90;;;7.05;100.00;97769.28;5038850;28;20043;-53
2022/05/07 04:17:50;;;;;;;6.97;5.90;;;7.60;99.90;;;7.07;100.00;97772.75;5035106;28;20128;-52
2022/05/07 04:20:16;;;;;;;9.20;6.25;;;7.60;99.90;;;7.10;100.00;97771.81;5036437;28;20033;-53
2022/05/07 04:22:42;;;;;;;7.80;5.53;;;7.60;99.90;;;7.09;100.00;97770.09;5037111;28;20032;-53
2022/05/07 04:25:10;;;;;;;7.93;6.05;;;7.60;99.90;;;7.12;100.00;97764.78;5034595;28;20025;-54
2022/05/07 04:27:36;;;;;;;7.95;5.70;;;7.70;99.90;;;7.16;100.00;97771.72;5031405;28;20202;-55
2022/05/07 04:30:03;;;;;;;10.30;6.20;;;7.70;99.90;;;7.18;100.00;97779.56;5030089;28;20071;-54
2022/05/07 04:32:28;;;;;;;7.47;5.82;;;7.70;99.90;;;7.21;100.00;97776.88;5032416;28;20369;-54
2022/05/07 04:34:55;;;;;;;7.40;6.13;;;7.70;99.90;;;7.22;100.00;97781.25;5027868;28;20033;-54
2022/05/07 04:37:21;;;;;;;9.45;5.80;;;7.70;99.90;;;7.29;100.00;97782.00;5031400;28;20052;-55
2022/05/07 04:39:47;;;;;;;8.63;6.07;;;7.80;99.90;;;7.29;100.00;97774.13;5031488;28;20024;-52
2022/05/07 04:42:13;;;;;;;7.35;5.90;;;7.80;99.90;;;7.33;100.00;97774.03;5030683;28;20167;-53
2022/05/07 04:44:39;;;;;;;8.98;6.32;;;7.90;99.90;;;7.43;100.00;97775.63;5033134;28;20076;-54
2022/05/07 04:47:05;;;;;;;6.68;5.22;;;8.00;99.90;;;7.44;100.00;97779.09;5037733;28;20527;-53
2022/05/07 04:49:32;;;;;;;6.88;5.82;;;8.00;99.90;;;7.53;100.00;97789.41;5038252;28;20182;-54
2022/05/07 04:51:58;;;;;;;8.13;6.03;;;8.00;99.90;;;7.59;100.00;97788.44;5037793;28;20043;-53
2022/05/07 04:54:24;;;;;;;7.30;5.75;;;8.10;99.90;;;7.64;100.00;97787.47;5035213;28;20397;-54
2022/05/07 04:56:52;;;;;;;8.05;5.40;;;8.20;99.90;;;7.71;100.00;97787.34;5037514;28;20546;-54
2022/05/07 04:59:19;;;;;;;7.03;4.70;;;8.20;99.90;;;7.78;100.00;97791.59;5039229;28;20025;-52
2022/05/07 05:01:46;;;;;;;7.50;5.35;;;8.30;99.90;;;7.72;100.00;97760.22;5033139;28;20067;-53
2022/05/07 05:04:12;;;;;;;8.32;5.68;;;8.40;99.90;;;7.97;100.00;97782.44;5036239;28;20401;-52
2022/05/07 05:06:38;;;;;;;9.13;6.15;;;8.50;99.90;;;8.10;100.00;97788.31;5039619;28;20035;-53
2022/05/07 05:09:06;;;;;;;10.80;6.53;;;8.60;99.90;;;8.23;100.00;97795.03;5037162;28;20128;-52
2022/05/07 05:11:33;;;;;;;10.63;6.20;;;8.80;99.90;;;8.36;100.00;97790.41;5038328;28;20036;-53
2022/05/07 05:13:58;;;;;;;7.60;6.22;;;8.90;99.90;;;8.44;100.00;97794.66;5028226;28;20025;-52
2022/05/07 05:16:25;;;;;;;10.00;6.75;;;9.00;99.90;;;8.57;100.00;97796.94;5015600;28;20056;-53
2022/05/07 05:18:50;;;;;;;7.00;5.80;;;9.10;99.90;;;8.69;100.00;97803.69;5036166;28;20044;-52
2022/05/07 05:21:17;;;;;;;8.07;6.40;;;9.20;99.90;;;8.81;100.00;97806.94;5035014;28;20032;-53
2022/05/07 05:23:42;;;;;;;9.05;6.75;;;9.30;99.90;;;8.90;100.00;97806.72;5036000;28;20074;-52
2022/05/07 05:26:08;;;;;;;7.70;6.32;;;9.40;99.90;;;8.98;100.00;97803.00;5036564;28;20112;-53
2022/05/07 05:28:37;;;;;;;9.63;6.28;;;9.50;99.90;;;9.11;100.00;97805.34;5037196;28;20562;-53
2022/05/07 05:31:03;;;;;;;7.57;5.95;;;9.60;99.90;;;9.23;100.00;97802.41;5035212;28;20038;-52
2022/05/07 05:33:28;;;;;;;6.85;5.70;;;9.80;99.90;;;9.24;100.00;97793.63;5038380;28;20037;-51
2022/05/07 05:35:54;;;;;;;8.25;5.65;;;9.90;99.90;;;9.48;100.00;97812.31;5035123;28;20033;-53
2022/05/07 05:38:21;;;;;;;12.27;6.03;;;10.00;99.90;;;9.58;100.00;97803.25;5041064;28;20033;-52
2022/05/07 05:40:46;;;;;;;8.70;5.68;;;10.10;99.90;;;9.71;100.00;97811.72;5036137;28;20053;-52
2022/05/07 05:43:12;;;;;;;12.23;6.93;;;10.20;99.90;;;9.80;100.00;97814.09;5031819;28;20033;-53
2022/05/07 05:45:38;;;;;;;8.27;5.22;;;10.30;99.90;;;9.88;100.00;97809.47;5035937;28;20507;-52
2022/05/07 05:48:04;;;;;;;6.43;4.93;;;10.50;99.90;;;10.03;100.00;97823.13;5037811;28;20110;-52
2022/05/07 05:50:31;;;;;;;6.30;5.18;;;10.50;99.90;;;10.05;100.00;97803.75;5018844;28;20083;-53
2022/05/07 05:52:57;;;;;;;7.80;5.50;;;10.70;99.90;;;10.26;100.00;97820.69;5038659;28;20033;-54
2022/05/07 05:55:23;;;;;;;7.68;5.50;;;10.80;99.90;;;10.37;100.00;97823.03;5034309;28;20477;-52
2022/05/07 05:57:50;;;;;;;5.68;5.05;;;10.90;99.90;;;10.50;100.00;97828.84;5035687;28;20079;-55
2022/05/07 06:00:16;;;;;;;6.70;5.28;;;11.00;99.90;;;10.65;100.00;97824.88;5032159;28;20737;-53
2022/05/07 06:02:44;;;;;;;7.40;5.13;;;11.10;99.90;;;10.77;100.00;97835.06;5033998;28;20044;-52
2022/05/07 06:05:14;;;;;;;6.63;5.20;;;11.20;99.90;;;10.89;100.00;97833.78;5033454;28;20112;-53
2022/05/07 06:07:40;;;;;;;5.93;4.88;;;11.30;99.90;;;11.01;100.00;97835.19;5035138;28;20969;-55
2022/05/07 06:10:06;;;;;;;7.18;4.97;;;11.40;99.90;;;10.96;100.00;97814.22;5034447;28;20380;-53
2022/05/07 06:12:33;;;;;;;8.38;4.90;;;11.50;99.90;;;11.21;100.00;97832.78;5036451;28;20473;-54
2022/05/07 06:14:58;;;;;;;5.60;4.32;;;11.60;99.90;;;11.35;100.00;97834.97;5033107;28;20721;-55
2022/05/07 06:17:25;;;;;;;6.22;4.90;;;11.80;99.90;;;11.49;100.00;97829.22;5033001;28;20575;-53
2022/05/07 06:19:52;;;;;;;7.57;4.18;;;11.90;99.90;;;11.62;100.00;97832.31;5038114;28;20485;-53
2022/05/07 06:22:18;;;;;;;7.32;5.00;;;12.10;99.90;;;11.74;100.00;97831.91;5035275;28;20259;-53
2022/05/07 06:27:28;;;;;;;8.25;4.82;;;12.30;99.90;;;12.00;100.00;97836.28;5036158;28;20097;-53
2022/05/07 06:29:55;;;;;;;7.07;5.55;;;12.40;99.90;;;12.01;100.00;97824.81;5036343;28;20041;-52
2022/05/07 06:32:20;;;;;;;8.85;5.60;;;12.60;99.90;;;12.22;98.53;97840.78;5034807;28;20059;-53
2022/05/07 06:34:46;;;;;;;14.77;7.38;;;12.60;99.90;;;12.31;97.00;97837.84;5037253;28;20508;-54
2022/05/07 06:37:12;;;;;;;11.75;7.63;;;12.70;99.90;;;12.41;95.86;97838.34;5032849;28;20039;-54
2022/05/07 06:39:39;;;;;;;8.40;6.72;;;12.80;99.90;;;12.57;95.92;97838.63;5036468;28;20036;-54
2022/05/07 06:42:06;;;;;;;9.73;6.75;;;12.90;99.90;;;12.69;94.94;97845.25;5038036;28;20021;-52
2022/05/07 06:44:32;;;;;;;8.32;6.47;;;13.00;99.90;;;12.78;92.53;97832.50;5036930;28;20036;-53
2022/05/07 06:46:58;;;;;;;7.85;6.03;;;13.20;99.90;;;12.90;92.96;97836.47;5034848;28;20148;-51
2022/05/07 06:49:24;;;;;;;8.73;6.63;;;13.30;99.90;;;13.04;92.96;97832.41;5037267;28;20459;-53
2022/05/07 06:51:50;;;;;;;11.38;7.70;;;13.40;99.90;;;13.22;91.07;97846.69;5038733;28;20036;-54
2022/05/07 06:54:17;;;;;;;8.70;7.10;;;13.50;99.90;;;13.31;90.82;97838.41;5034410;28;20033;-52
2022/05/07 06:56:43;;;;;;;9.80;7.28;;;13.70;99.90;;;13.43;90.44;97839.69;5033386;28;20473;-52
2022/05/07 06:59:10;;;;;;;14.73;8.98;;;13.80;99.90;;;13.46;89.89;97827.19;5036123;28;20335;-53
2022/05/07 07:01:37;;;;;;;11.75;7.55;;;13.90;99.90;;;13.72;90.07;97844.63;5035630;28;20051;-54
2022/05/07 07:04:03;;;;;;;12.82;8.75;;;14.00;99.90;;;13.84;89.13;97843.25;5037099;28;20057;-54
2022/05/07 07:06:29;;;;;;;11.15;8.93;;;14.20;99.90;;;13.96;88.89;97846.28;5019369;28;20127;-54
2022/05/07 07:08:55;;;;;;;13.02;7.28;;;14.30;99.90;;;14.10;88.50;97844.78;5037249;28;20436;-53
2022/05/07 07:11:21;;;;;;;10.15;7.18;;;14.40;99.90;;;14.23;87.60;97853.03;5035740;28;20067;-52
2022/05/07 07:13:47;;;;;;;11.98;9.13;;;14.60;99.90;;;14.30;86.15;97853.59;5034780;28;20539;-52
2022/05/07 07:16:13;;;;;;;12.00;8.90;;;14.60;99.90;;;14.40;86.03;97846.97;5037578;28;20028;-53
2022/05/07 07:18:39;;;;;;;14.98;11.07;;;14.70;99.90;;;14.47;84.49;97844.91;5035203;28;20049;-52
2022/05/07 07:21:04;;;;;;;12.52;10.18;;;14.70;99.90;;;14.53;84.14;97849.91;5035466;28;20040;-54
2022/05/07 07:23:30;;;;;;;11.43;9.23;;;14.80;99.90;;;14.62;83.49;97846.88;5038106;28;20056;-53
2022/05/07 07:25:57;;;;;;;11.77;7.95;;;14.90;99.90;;;14.70;83.19;97851.84;5036594;28;20492;-52
2022/05/07 07:28:23;;;;;;;11.77;7.07;;;15.00;99.90;;;14.79;83.85;97853.22;5037202;28;20496;-52
2022/05/07 07:30:49;;;;;;;10.30;8.30;;;15.10;99.90;;;14.83;82.22;97844.16;5038382;28;20087;-53
2022/05/07 07:33:15;;;;;;;19.08;9.25;;;15.10;99.90;;;14.85;80.58;97842.28;5037630;28;20105;-52
2022/05/07 07:35:42;;;;;;;11.25;7.40;;;15.10;99.90;;;14.88;83.18;97828.88;5034995;28;20072;-52
2022/05/07 07:38:08;;;;;;;8.43;5.78;;;15.20;99.90;;;15.07;83.65;97839.47;5036301;28;20038;-53
2022/05/07 07:40:35;;;;;;;13.57;7.88;;;15.30;99.90;;;15.02;80.52;97830.84;5033622;28;20035;-53
2022/05/07 07:43:01;;;;;;;14.25;8.15;;;15.40;99.90;;;14.95;77.20;97842.72;5036087;28;20036;-54
2022/05/07 07:48:11;;;;;;;8.77;6.80;;;15.40;99.90;;;15.11;78.65;97848.16;5036515;28;20384;-52
2022/05/07 07:50:38;;;;;;;9.50;7.20;;;15.40;99.90;;;15.18;79.80;97852.22;5035296;28;20033;-51
2022/05/07 07:53:11;;;;;;;8.68;6.20;;;15.50;99.90;;;15.28;81.82;97834.91;5037031;28;20026;-53
2022/05/07 07:55:37;;;;;;;7.30;4.82;;;15.60;99.90;;;15.38;82.38;97837.97;5035636;28;20132;-53
2022/05/07 07:58:07;;;;;;;12.05;7.13;;;15.60;99.90;;;15.40;78.16;97847.59;5037138;28;20565;-53
2022/05/07 08:00:38;;;;;;;17.98;9.85;;;15.70;99.90;;;15.47;79.29;97826.91;5038031;28;20036;-50
2022/05/07 08:03:11;;;;;;;11.75;7.72;;;15.80;99.90;;;15.68;77.13;97851.53;5036605;28;20111;-53
2022/05/07 08:05:39;;;;;;;6.70;4.97;;;16.00;99.90;;;15.81;80.27;97835.88;5038340;23;20073;-59
2022/05/07 08:13:38;;;;;;;12.35;7.32;;;16.00;99.90;;;15.77;75.21;97852.91;5015739;28;20051;-58
2022/05/07 08:16:05;;;;;;;9.95;6.25;;;16.10;99.90;;;15.89;75.85;97852.28;5011791;28;20026;-58
2022/05/07 08:18:31;;;;;;;9.05;6.35;;;16.20;99.90;;;16.00;74.28;97846.41;5013685;28;20034;-58
2022/05/07 08:20:57;;;;;;;6.55;5.25;;;16.30;99.90;;;16.10;77.99;97837.00;5013918;28;20096;-58
2022/05/07 08:23:24;;;;;;;13.73;9.63;;;16.30;99.90;;;15.98;69.20;97850.94;5012623;28;20077;-59
2022/05/07 08:25:50;;;;;;;11.32;8.63;;;16.40;99.90;;;16.08;68.98;97843.34;5015025;28;20034;-58
2022/05/07 08:28:16;;;;;;;10.05;6.78;;;16.30;99.90;;;16.08;69.33;97848.66;5014678;28;20049;-58
2022/05/07 08:30:42;;;;;;;13.85;8.98;;;16.40;99.90;;;16.06;69.04;97853.22;5016474;28;20132;-58
2022/05/07 08:33:07;;;;;;;15.13;8.35;;;16.30;99.90;;;16.08;70.90;97844.22;5016322;28;20076;-61
2022/05/07 08:35:33;;;;;;;11.20;7.40;;;16.40;99.90;;;16.18;72.03;97841.94;5016371;28;20029;-58
2022/05/07 08:38:00;;;;;;;15.80;8.32;;;16.50;99.90;;;16.34;71.71;97840.16;5017578;28;20029;-58
2022/05/07 08:40:27;;;;;;;9.30;6.90;;;16.60;99.90;;;16.46;73.19;97836.00;5016663;28;20133;-58
2022/05/07 08:42:56;;;;;;;8.02;6.13;;;16.70;99.90;;;16.61;73.79;97843.16;5011270;28;20042;-58
2022/05/07 08:45:23;;;;;;;9.15;7.43;;;16.80;99.90;;;16.73;74.40;97828.31;5014023;28;20033;-58
2022/05/07 08:47:53;;;;;;;10.07;7.38;;;17.00;99.90;;;16.75;69.91;97838.88;5014694;28;20508;-58
2022/05/07 08:50:19;;;;;;;9.55;7.40;;;17.00;99.90;;;16.83;71.72;97835.78;5013914;28;20504;-58
2022/05/07 08:52:46;;;;;;;10.68;8.23;;;17.10;99.90;;;16.87;69.17;97838.25;5013155;28;20435;-58
2022/05/07 08:55:17;;;;;;;12.48;8.18;;;17.10;99.90;;;16.96;68.45;97835.06;5015309;28;20038;-58
2022/05/07 08:57:49;;;;;;;9.10;7.43;;;17.20;99.90;;;16.94;65.83;97836.97;5018094;28;20111;-58
2022/05/07 09:00:19;;;;;;;9.63;6.90;;;17.20;99.90;;;16.95;68.42;97836.00;5014904;28;20029;-60
2022/05/07 09:02:52;;;;;;;12.32;8.50;;;17.20;99.90;;;17.00;66.68;97834.91;5016901;28;20524;-58
2022/05/07 09:05:21;;;;;;;14.63;8.25;;;17.30;99.90;;;17.06;65.23;97837.22;5015129;28;20060;-58
2022/05/07 09:07:54;;;;;;;11.98;6.93;;;17.40;99.90;;;17.03;70.71;97830.25;5017773;28;20030;-58
2022/05/07 09:10:21;;;;;;;11.70;7.00;;;17.40;99.90;;;17.07;67.19;97839.78;5014056;28;20025;-59
2022/05/07 09:12:46;;;;;;;11.38;8.40;;;17.40;99.90;;;16.95;64.30;97833.34;5002207;28;20041;-59
2022/05/07 09:15:12;;;;;;;12.15;8.65;;;17.30;99.90;;;17.02;65.73;97833.00;5012569;28;20237;-58
2022/05/07 09:17:38;;;;;;;10.88;6.65;;;17.30;99.90;;;17.06;58.93;97819.41;5015456;28;20366;-58
2022/05/07 09:20:15;;;;;;;8.48;6.15;;;17.40;99.90;;;17.23;61.90;97829.13;5015466;28;20462;-58
2022/05/07 09:22:56;;;;;;;7.90;5.57;;;17.50;99.90;;;17.34;60.86;97834.69;5017916;28;20371;-58
2022/05/07 09:25:27;;;;;;;9.90;6.57;;;17.60;99.90;;;17.42;60.88;97834.25;5014797;28;20021;-58
2022/05/07 09:27:57;;;;;;;8.25;5.00;;;17.70;99.90;;;17.49;56.50;97838.28;5015392;28;20025;-57
2022/05/07 09:30:28;;;;;;;5.53;3.70;;;17.80;99.90;;;17.45;53.19;97838.56;5014058;28;20345;-57
2022/05/07 09:32:56;;;;;;;6.05;3.20;;;17.80;99.90;;;17.51;53.05;97835.53;5018265;28;20025;-57
2022/05/07 09:38:11;;;;;;;5.07;3.65;;;17.90;99.90;;;17.54;52.28;97827.34;5008626;28;20048;-58
2022/05/07 09:40:41;;;;;;;7.60;3.60;;;17.90;99.90;;;17.61;52.20;97835.84;5015927;28;20037;-58
2022/05/07 09:43:13;;;;;;;7.30;4.07;;;17.90;99.90;;;17.61;52.83;97828.72;5017215;28;20022;-61
2022/05/07 09:45:40;;;;;;;;;;;18.00;99.90;;;17.63;50.56;97831.28;5015907;28;20022;-58
2022/05/07 09:48:08;;;;;;;4.93;3.63;;;18.00;98.80;;;17.62;52.50;97821.56;5012720;28;20375;-58
2022/05/07 09:58:49;;;;;;;4.68;3.17;;;18.20;98.00;;;17.95;51.10;97826.75;5016975;28;20412;-59
2022/05/07 10:01:21;;;;;;;5.82;2.65;;;18.40;98.20;;;18.07;49.65;97825.13;5014290;28;20029;-59
2022/05/07 10:04:20;;;;;;;5.82;2.70;;;18.50;97.10;;;18.02;48.74;97817.41;5016144;28;20031;-58
2022/05/07 10:07:15;;;;;;;3.40;2.78;;;18.60;95.20;;;18.18;50.54;97816.47;5013889;28;20033;-59
2022/05/07 10:09:44;;;;;;;5.60;2.55;;;18.60;96.80;;;18.02;48.53;97811.22;4997223;28;20029;-59
2022/05/07 10:12:17;;;;;;;3.55;2.22;;;18.40;95.50;;;18.10;49.51;97806.25;4999180;28;20108;-59
2022/05/07 10:14:42;;;;;;;4.38;2.67;;;18.50;97.20;;;18.21;48.77;97809.13;5002321;28;20061;-58
2022/05/07 10:17:11;;;;;;;5.82;3.00;;;18.70;96.00;;;18.42;48.33;97806.09;5003352;28;20578;-58
2022/05/07 10:19:42;;;;;;;4.65;2.50;;;18.80;95.30;;;18.70;47.30;97806.06;5018053;28;20060;-59
2022/05/07 10:22:34;;;;;;;3.70;2.30;;;19.10;95.10;;;18.91;46.10;97811.03;5001300;28;20033;-59
2022/05/07 10:25:12;;;;;;;4.53;1.95;;;19.40;94.00;;;19.05;42.39;97805.66;5007809;28;20049;-59
2022/05/07 10:27:43;;;;;;;4.82;2.10;;;19.50;91.20;;;19.18;43.69;97796.81;5015076;28;20548;-59
2022/05/07 10:30:49;;;;;;;2.87;1.83;;;19.60;91.00;;;19.17;44.88;97795.97;5016437;28;20037;-59
2022/05/07 10:33:15;;;;;;;5.65;2.00;;;19.60;91.60;;;19.12;47.46;97806.13;5013155;28;20045;-59
2022/05/07 10:35:51;;;;;;;3.25;2.05;;;19.50;92.60;;;19.20;45.39;97800.25;5013892;28;20167;-59
2022/05/07 10:38:23;;;;;;;4.13;2.13;;;19.50;92.00;;;18.97;44.00;97793.72;5020568;28;20037;-58
2022/05/07 10:40:54;;;;;;;4.13;2.33;;;19.50;90.00;;;19.02;42.73;97787.16;5019321;28;20029;-59
2022/05/07 10:43:39;;;;;;;7.05;2.30;;;19.60;88.80;;;19.20;45.49;97790.44;5016671;28;20049;-59
2022/05/07 10:46:07;;;;;;;6.50;2.38;;;19.70;90.50;;;19.38;46.41;97783.00;5018636;28;20037;-59
2022/05/07 10:48:50;;;;;;;5.75;2.65;;;19.80;91.40;;;19.42;43.59;97789.03;5010629;28;20033;-60
2022/05/07 10:51:29;;;;;;;3.05;1.85;;;19.90;88.90;;;19.32;44.81;97780.72;5013802;28;20037;-59
2022/05/07 10:54:03;;;;;;;3.05;1.77;;;19.90;89.90;;;19.29;44.32;97783.63;5016250;28;20178;-59